TUI4KL LATI-EDDN
Flight info
| Callsign | TUI4KL |
|---|---|
| Flight time | 1h 39m |
| Altitude | 34000 |
| Route | INLOT DCT RETRA DCT GACMO DCT TEBLI DCT NEMAL DCT SIMBA DCT AKINI Z109 UPALA UPALA1V |
| Aircraft | B38M/M-SDE1FGHILORVWXY/HB1 |
Departure
| Time | 2026-05-04 17:10 |
|---|---|
| Airport | Tirana International Airport Mother Teresa (LATI) |
Arrival
| Time | 2026-05-04 18:50 |
|---|---|
| Airport | Nuremberg Airport (EDDN) |
| Time | Latitude | Longitude | Altitude | Speed | Heading |
|---|---|---|---|---|---|
| 2026-05-04 16:41 | 41.42105 | 19.71493 | 124 ft | 0 kts | 264° |
| 2026-05-04 17:00 | 41.42139 | 19.71555 | 120 ft | 4 kts | 175° |
| 2026-05-04 17:00 | 41.42162 | 19.71553 | 121 ft | 0 kts | 174° |
| 2026-05-04 17:02 | 41.42161 | 19.71553 | 121 ft | 0 kts | 174° |
| 2026-05-04 17:04 | 41.42157 | 19.71553 | 122 ft | 2 kts | 174° |
| 2026-05-04 17:04 | 41.42053 | 19.71567 | 123 ft | 12 kts | 174° |
| 2026-05-04 17:05 | 41.41864 | 19.71592 | 126 ft | 15 kts | 174° |
| 2026-05-04 17:05 | 41.41633 | 19.71624 | 124 ft | 18 kts | 174° |
| 2026-05-04 17:06 | 41.41403 | 19.71654 | 128 ft | 17 kts | 175° |
| 2026-05-04 17:06 | 41.41281 | 19.71670 | 131 ft | 18 kts | 174° |
| 2026-05-04 17:07 | 41.41010 | 19.71706 | 133 ft | 21 kts | 174° |
| 2026-05-04 17:07 | 41.40909 | 19.71722 | 134 ft | 22 kts | 173° |
| 2026-05-04 17:07 | 41.40702 | 19.71769 | 134 ft | 24 kts | 174° |
| 2026-05-04 17:07 | 41.40566 | 19.71785 | 134 ft | 13 kts | 175° |
| 2026-05-04 17:08 | 41.40470 | 19.71798 | 135 ft | 15 kts | 174° |
| 2026-05-04 17:08 | 41.40301 | 19.71912 | 135 ft | 15 kts | 143° |
| 2026-05-04 17:08 | 41.40246 | 19.71989 | 135 ft | 16 kts | 114° |
| 2026-05-04 17:09 | 41.40245 | 19.72112 | 135 ft | 14 kts | 83° |
| 2026-05-04 17:09 | 41.40267 | 19.72213 | 135 ft | 11 kts | 37° |
| 2026-05-04 17:09 | 41.40326 | 19.72211 | 135 ft | 9 kts | 353° |
| 2026-05-04 17:10 | 41.40740 | 19.72153 | 136 ft | 85 kts | 355° |
| 2026-05-04 17:10 | 41.43927 | 19.71765 | 1409 ft | 177 kts | 354° |
| 2026-05-04 17:11 | 41.45200 | 19.71621 | 2095 ft | 196 kts | 355° |
| 2026-05-04 17:11 | 41.46705 | 19.71446 | 2369 ft | 235 kts | 355° |
| 2026-05-04 17:11 | 41.50023 | 19.71036 | 4335 ft | 243 kts | 355° |
| 2026-05-04 17:12 | 41.51763 | 19.70823 | 5059 ft | 260 kts | 356° |
| 2026-05-04 17:12 | 41.55318 | 19.69563 | 6968 ft | 271 kts | 339° |
| 2026-05-04 17:13 | 41.60588 | 19.66533 | 9907 ft | 278 kts | 340° |
| 2026-05-04 17:14 | 41.66325 | 19.63289 | 11670 ft | 318 kts | 339° |
| 2026-05-04 17:14 | 41.68337 | 19.62151 | 12586 ft | 318 kts | 339° |
| 2026-05-04 17:14 | 41.72448 | 19.59824 | 14317 ft | 323 kts | 339° |
| 2026-05-04 17:15 | 41.74540 | 19.58640 | 15048 ft | 327 kts | 339° |
| 2026-05-04 17:15 | 41.78776 | 19.56237 | 16571 ft | 333 kts | 339° |
| 2026-05-04 17:16 | 41.83064 | 19.53801 | 18029 ft | 340 kts | 339° |
| 2026-05-04 17:16 | 41.89683 | 19.50035 | 19994 ft | 349 kts | 339° |
| 2026-05-04 17:17 | 41.91936 | 19.48751 | 20595 ft | 352 kts | 339° |
| 2026-05-04 17:17 | 41.98818 | 19.44950 | 22183 ft | 364 kts | 342° |
| 2026-05-04 17:18 | 42.01214 | 19.43835 | 22784 ft | 366 kts | 342° |
| 2026-05-04 17:18 | 42.06074 | 19.41530 | 23852 ft | 372 kts | 342° |
| 2026-05-04 17:19 | 42.10985 | 19.39181 | 24814 ft | 376 kts | 341° |
| 2026-05-04 17:19 | 42.15943 | 19.36804 | 25727 ft | 380 kts | 341° |
| 2026-05-04 17:20 | 42.20938 | 19.34405 | 26545 ft | 386 kts | 341° |
| 2026-05-04 17:20 | 42.25722 | 19.31058 | 27426 ft | 391 kts | 329° |
| 2026-05-04 17:20 | 42.28051 | 19.29129 | 27824 ft | 393 kts | 329° |
| 2026-05-04 17:21 | 42.32727 | 19.25223 | 28670 ft | 397 kts | 329° |
| 2026-05-04 17:21 | 42.37453 | 19.21260 | 29472 ft | 401 kts | 329° |
| 2026-05-04 17:22 | 42.39834 | 19.19261 | 29861 ft | 403 kts | 329° |
| 2026-05-04 17:22 | 42.42231 | 19.17246 | 30177 ft | 407 kts | 329° |
| 2026-05-04 17:23 | 42.49466 | 19.11153 | 31115 ft | 413 kts | 328° |
| 2026-05-04 17:23 | 42.51913 | 19.09088 | 31416 ft | 415 kts | 328° |
| 2026-05-04 17:23 | 42.56803 | 19.04957 | 32252 ft | 413 kts | 328° |
| 2026-05-04 17:24 | 42.59241 | 19.02893 | 32685 ft | 412 kts | 328° |
| 2026-05-04 17:24 | 42.66525 | 18.96719 | 33888 ft | 410 kts | 328° |
| 2026-05-04 17:25 | 42.68954 | 18.94656 | 34106 ft | 411 kts | 328° |
| 2026-05-04 17:26 | 42.78574 | 18.86468 | 34101 ft | 408 kts | 328° |
| 2026-05-04 17:27 | 42.90600 | 18.76187 | 34108 ft | 410 kts | 328° |
| 2026-05-04 17:28 | 43.00223 | 18.67926 | 34106 ft | 408 kts | 328° |
| 2026-05-04 17:29 | 43.14617 | 18.55502 | 34109 ft | 410 kts | 328° |
| 2026-05-04 17:31 | 43.26613 | 18.44953 | 34102 ft | 410 kts | 328° |
| 2026-05-04 17:32 | 43.38633 | 18.34341 | 34097 ft | 410 kts | 327° |
| 2026-05-04 17:33 | 43.48202 | 18.25857 | 34116 ft | 410 kts | 327° |
| 2026-05-04 17:34 | 43.57774 | 18.17337 | 34094 ft | 411 kts | 327° |
| 2026-05-04 17:35 | 43.69810 | 18.06578 | 34061 ft | 411 kts | 327° |
| 2026-05-04 17:36 | 43.74608 | 18.02274 | 34072 ft | 412 kts | 327° |
| 2026-05-04 17:36 | 43.79418 | 17.97952 | 34069 ft | 412 kts | 327° |
| 2026-05-04 17:37 | 43.84226 | 17.93622 | 34062 ft | 412 kts | 327° |
| 2026-05-04 17:37 | 43.89045 | 17.89273 | 34063 ft | 413 kts | 327° |
| 2026-05-04 17:38 | 43.93866 | 17.84916 | 34070 ft | 414 kts | 327° |
| 2026-05-04 17:38 | 43.98657 | 17.80577 | 34062 ft | 414 kts | 327° |
| 2026-05-04 17:39 | 44.05906 | 17.73994 | 34063 ft | 414 kts | 327° |
| 2026-05-04 17:39 | 44.10735 | 17.69599 | 34064 ft | 414 kts | 327° |
| 2026-05-04 17:40 | 44.15564 | 17.65194 | 34057 ft | 415 kts | 327° |
| 2026-05-04 17:40 | 44.20372 | 17.60801 | 34054 ft | 415 kts | 327° |
| 2026-05-04 17:41 | 44.25213 | 17.56367 | 34054 ft | 416 kts | 327° |
| 2026-05-04 17:41 | 44.30068 | 17.51912 | 34064 ft | 417 kts | 327° |
| 2026-05-04 17:42 | 44.34913 | 17.47458 | 34044 ft | 416 kts | 327° |
| 2026-05-04 17:42 | 44.39715 | 17.43034 | 34049 ft | 416 kts | 326° |
| 2026-05-04 17:43 | 44.44554 | 17.38568 | 34044 ft | 416 kts | 326° |
| 2026-05-04 17:43 | 44.49400 | 17.34086 | 34051 ft | 417 kts | 326° |
| 2026-05-04 17:44 | 44.53431 | 17.30350 | 34041 ft | 417 kts | 326° |
| 2026-05-04 17:44 | 44.58276 | 17.25852 | 34040 ft | 417 kts | 326° |
| 2026-05-04 17:45 | 44.63120 | 17.21345 | 34023 ft | 417 kts | 326° |
| 2026-05-04 17:45 | 44.67946 | 17.16848 | 34040 ft | 418 kts | 326° |
| 2026-05-04 17:46 | 44.72796 | 17.12318 | 34025 ft | 418 kts | 326° |
| 2026-05-04 17:46 | 44.77643 | 17.07781 | 34026 ft | 418 kts | 326° |
| 2026-05-04 17:47 | 44.82467 | 17.03256 | 34025 ft | 418 kts | 326° |
| 2026-05-04 17:47 | 44.87321 | 16.98695 | 34026 ft | 418 kts | 326° |
| 2026-05-04 17:48 | 44.92177 | 16.94121 | 34026 ft | 419 kts | 326° |
| 2026-05-04 17:48 | 44.97003 | 16.89567 | 34024 ft | 420 kts | 326° |
| 2026-05-04 17:49 | 45.01866 | 16.84968 | 34019 ft | 420 kts | 326° |
| 2026-05-04 17:49 | 45.06704 | 16.80387 | 34019 ft | 419 kts | 326° |
| 2026-05-04 17:50 | 45.11557 | 16.75781 | 34018 ft | 420 kts | 325° |
| 2026-05-04 17:50 | 45.16407 | 16.71169 | 34021 ft | 420 kts | 325° |
| 2026-05-04 17:51 | 45.21177 | 16.66390 | 34021 ft | 419 kts | 321° |
| 2026-05-04 17:51 | 45.25775 | 16.61264 | 34019 ft | 420 kts | 321° |
| 2026-05-04 17:52 | 45.30396 | 16.56173 | 34018 ft | 420 kts | 322° |
| 2026-05-04 17:52 | 45.34993 | 16.51110 | 34018 ft | 420 kts | 321° |
| 2026-05-04 17:53 | 45.39619 | 16.46004 | 34011 ft | 421 kts | 321° |
| 2026-05-04 17:53 | 45.44256 | 16.40877 | 34015 ft | 422 kts | 321° |
| 2026-05-04 17:54 | 45.48907 | 16.35722 | 34010 ft | 422 kts | 321° |
| 2026-05-04 17:54 | 45.53505 | 16.30615 | 34009 ft | 422 kts | 321° |
| 2026-05-04 17:55 | 45.58140 | 16.25456 | 34005 ft | 422 kts | 321° |
| 2026-05-04 17:55 | 45.62775 | 16.20285 | 34001 ft | 423 kts | 321° |
| 2026-05-04 17:56 | 45.67451 | 16.15059 | 33995 ft | 427 kts | 321° |
| 2026-05-04 17:56 | 45.72084 | 16.09869 | 33993 ft | 426 kts | 321° |
| 2026-05-04 17:57 | 45.76763 | 16.04615 | 33994 ft | 427 kts | 321° |
| 2026-05-04 17:57 | 45.81448 | 15.99344 | 33995 ft | 427 kts | 321° |
| 2026-05-04 17:58 | 45.86096 | 15.94102 | 34004 ft | 426 kts | 321° |
| 2026-05-04 17:58 | 45.90761 | 15.88831 | 34010 ft | 429 kts | 320° |
| 2026-05-04 17:59 | 45.95450 | 15.83519 | 34009 ft | 427 kts | 320° |
| 2026-05-04 18:00 | 46.02434 | 15.75588 | 34011 ft | 429 kts | 320° |
| 2026-05-04 18:00 | 46.07120 | 15.70251 | 34006 ft | 429 kts | 320° |
| 2026-05-04 18:01 | 46.11766 | 15.64946 | 34020 ft | 427 kts | 321° |
| 2026-05-04 18:01 | 46.16419 | 15.59624 | 33991 ft | 425 kts | 321° |
| 2026-05-04 18:02 | 46.23379 | 15.51640 | 34001 ft | 425 kts | 320° |
| 2026-05-04 18:02 | 46.27978 | 15.46349 | 33995 ft | 426 kts | 320° |
| 2026-05-04 18:03 | 46.32614 | 15.41003 | 33996 ft | 426 kts | 320° |
| 2026-05-04 18:03 | 46.37195 | 15.35507 | 33996 ft | 430 kts | 319° |
| 2026-05-04 18:04 | 46.41811 | 15.29953 | 34008 ft | 428 kts | 318° |
| 2026-05-04 18:05 | 46.48659 | 15.21701 | 34010 ft | 427 kts | 318° |
| 2026-05-04 18:05 | 46.53221 | 15.16189 | 34016 ft | 426 kts | 319° |
| 2026-05-04 18:06 | 46.60093 | 15.07859 | 34008 ft | 431 kts | 318° |
| 2026-05-04 18:06 | 46.64679 | 15.02285 | 34011 ft | 433 kts | 318° |
| 2026-05-04 18:07 | 46.69289 | 14.96670 | 34006 ft | 432 kts | 319° |
| 2026-05-04 18:07 | 46.73871 | 14.91074 | 34005 ft | 431 kts | 319° |
| 2026-05-04 18:08 | 46.78469 | 14.85447 | 34003 ft | 431 kts | 318° |
| 2026-05-04 18:08 | 46.83052 | 14.79825 | 34000 ft | 430 kts | 317° |
| 2026-05-04 18:09 | 46.92290 | 14.68453 | 34000 ft | 433 kts | 318° |
| 2026-05-04 18:10 | 46.96916 | 14.62738 | 34004 ft | 436 kts | 318° |
| 2026-05-04 18:10 | 47.01515 | 14.57046 | 33992 ft | 434 kts | 318° |
| 2026-05-04 18:11 | 47.06119 | 14.51333 | 33997 ft | 435 kts | 317° |
| 2026-05-04 18:11 | 47.10744 | 14.45580 | 33993 ft | 436 kts | 317° |
| 2026-05-04 18:12 | 47.15366 | 14.39816 | 33990 ft | 436 kts | 317° |
| 2026-05-04 18:12 | 47.20003 | 14.34020 | 33990 ft | 436 kts | 317° |
| 2026-05-04 18:13 | 47.24611 | 14.28246 | 33984 ft | 436 kts | 317° |
| 2026-05-04 18:14 | 47.31541 | 14.19539 | 33989 ft | 437 kts | 317° |
| 2026-05-04 18:14 | 47.36131 | 14.13754 | 33964 ft | 436 kts | 317° |
| 2026-05-04 18:15 | 47.45368 | 14.02071 | 33954 ft | 437 kts | 317° |
| 2026-05-04 18:16 | 47.49977 | 13.96221 | 33952 ft | 436 kts | 317° |
| 2026-05-04 18:16 | 47.54558 | 13.90392 | 33952 ft | 436 kts | 317° |
| 2026-05-04 18:17 | 47.61465 | 13.81578 | 33903 ft | 433 kts | 317° |
| 2026-05-04 18:17 | 47.66035 | 13.75727 | 32433 ft | 434 kts | 317° |
| 2026-05-04 18:18 | 47.68294 | 13.72828 | 31887 ft | 436 kts | 316° |
| 2026-05-04 18:18 | 47.70601 | 13.69867 | 31378 ft | 439 kts | 317° |
| 2026-05-04 18:18 | 47.72920 | 13.66886 | 30982 ft | 440 kts | 317° |
| 2026-05-04 18:19 | 47.79896 | 13.57896 | 30917 ft | 444 kts | 316° |
| 2026-05-04 18:19 | 47.84565 | 13.51861 | 30904 ft | 445 kts | 316° |
| 2026-05-04 18:20 | 47.89200 | 13.45855 | 30899 ft | 444 kts | 317° |
| 2026-05-04 18:20 | 47.93857 | 13.39805 | 30903 ft | 444 kts | 316° |
| 2026-05-04 18:21 | 47.98514 | 13.33740 | 30902 ft | 444 kts | 316° |
| 2026-05-04 18:21 | 48.03157 | 13.27679 | 30732 ft | 443 kts | 316° |
| 2026-05-04 18:22 | 48.05475 | 13.24648 | 30489 ft | 443 kts | 316° |
| 2026-05-04 18:22 | 48.07788 | 13.21618 | 30245 ft | 441 kts | 316° |
| 2026-05-04 18:22 | 48.10098 | 13.18590 | 30006 ft | 440 kts | 317° |
| 2026-05-04 18:22 | 48.12368 | 13.15610 | 29879 ft | 439 kts | 317° |
| 2026-05-04 18:23 | 48.16965 | 13.09562 | 29897 ft | 440 kts | 316° |
| 2026-05-04 18:23 | 48.21585 | 13.03472 | 29304 ft | 441 kts | 316° |
| 2026-05-04 18:24 | 48.23795 | 13.00250 | 28320 ft | 443 kts | 309° |
| 2026-05-04 18:24 | 48.25828 | 12.96817 | 27455 ft | 445 kts | 310° |
| 2026-05-04 18:24 | 48.27897 | 12.93328 | 26621 ft | 447 kts | 309° |
| 2026-05-04 18:24 | 48.29960 | 12.89837 | 25792 ft | 448 kts | 309° |
| 2026-05-04 18:25 | 48.32027 | 12.86332 | 25133 ft | 445 kts | 309° |
| 2026-05-04 18:25 | 48.34065 | 12.82870 | 24651 ft | 438 kts | 309° |
| 2026-05-04 18:25 | 48.36060 | 12.79477 | 24190 ft | 431 kts | 309° |
| 2026-05-04 18:25 | 48.38033 | 12.76118 | 23762 ft | 425 kts | 309° |
| 2026-05-04 18:26 | 48.39954 | 12.72843 | 23290 ft | 419 kts | 309° |
| 2026-05-04 18:26 | 48.41877 | 12.69560 | 22728 ft | 414 kts | 309° |
| 2026-05-04 18:26 | 48.43765 | 12.66331 | 22209 ft | 410 kts | 309° |
| 2026-05-04 18:26 | 48.45649 | 12.63109 | 21611 ft | 408 kts | 309° |
| 2026-05-04 18:27 | 48.47514 | 12.59914 | 21056 ft | 405 kts | 309° |
| 2026-05-04 18:27 | 48.49368 | 12.56733 | 20506 ft | 402 kts | 309° |
| 2026-05-04 18:27 | 48.50591 | 12.54633 | 20173 ft | 400 kts | 309° |
| 2026-05-04 18:27 | 48.52404 | 12.51517 | 19968 ft | 396 kts | 309° |
| 2026-05-04 18:28 | 48.54228 | 12.48379 | 19920 ft | 399 kts | 309° |
| 2026-05-04 18:28 | 48.56665 | 12.44178 | 19917 ft | 400 kts | 309° |
| 2026-05-04 18:28 | 48.57902 | 12.42044 | 19914 ft | 400 kts | 309° |
| 2026-05-04 18:28 | 48.59736 | 12.38877 | 19919 ft | 400 kts | 309° |
| 2026-05-04 18:29 | 48.61551 | 12.35740 | 19909 ft | 400 kts | 309° |
| 2026-05-04 18:29 | 48.63384 | 12.32566 | 19914 ft | 400 kts | 309° |
| 2026-05-04 18:29 | 48.65220 | 12.29385 | 19926 ft | 400 kts | 308° |
| 2026-05-04 18:29 | 48.67051 | 12.26207 | 19920 ft | 399 kts | 308° |
| 2026-05-04 18:30 | 48.70697 | 12.19870 | 19918 ft | 399 kts | 308° |
| 2026-05-04 18:30 | 48.72494 | 12.16741 | 19554 ft | 396 kts | 308° |
| 2026-05-04 18:30 | 48.74297 | 12.13597 | 19200 ft | 394 kts | 308° |
| 2026-05-04 18:31 | 48.76001 | 12.10352 | 18855 ft | 392 kts | 306° |
| 2026-05-04 18:31 | 48.77681 | 12.07114 | 18506 ft | 390 kts | 306° |
| 2026-05-04 18:31 | 48.79365 | 12.03883 | 18158 ft | 389 kts | 306° |
| 2026-05-04 18:31 | 48.81040 | 12.00672 | 17766 ft | 387 kts | 306° |
| 2026-05-04 18:32 | 48.82704 | 11.97482 | 17364 ft | 384 kts | 306° |
| 2026-05-04 18:32 | 48.84369 | 11.94286 | 16686 ft | 386 kts | 306° |
| 2026-05-04 18:32 | 48.86028 | 11.91099 | 16248 ft | 382 kts | 305° |
| 2026-05-04 18:32 | 48.87645 | 11.87989 | 15882 ft | 377 kts | 305° |
| 2026-05-04 18:33 | 48.89274 | 11.84851 | 15503 ft | 377 kts | 305° |
| 2026-05-04 18:33 | 48.90896 | 11.81724 | 15179 ft | 376 kts | 305° |
| 2026-05-04 18:33 | 48.92514 | 11.78601 | 14866 ft | 375 kts | 305° |
| 2026-05-04 18:33 | 48.94127 | 11.75483 | 14549 ft | 373 kts | 305° |
| 2026-05-04 18:34 | 48.95730 | 11.72383 | 14251 ft | 372 kts | 305° |
| 2026-05-04 18:34 | 48.97326 | 11.69291 | 13925 ft | 371 kts | 305° |
| 2026-05-04 18:34 | 48.98916 | 11.66208 | 13597 ft | 370 kts | 305° |
| 2026-05-04 18:34 | 49.00496 | 11.63139 | 13252 ft | 365 kts | 305° |
| 2026-05-04 18:35 | 49.02047 | 11.60126 | 12917 ft | 356 kts | 304° |
| 2026-05-04 18:35 | 49.03544 | 11.57211 | 12553 ft | 341 kts | 304° |
| 2026-05-04 18:35 | 49.04978 | 11.54418 | 12232 ft | 331 kts | 304° |
| 2026-05-04 18:35 | 49.06382 | 11.51682 | 11913 ft | 322 kts | 304° |
| 2026-05-04 18:36 | 49.07726 | 11.49058 | 11612 ft | 312 kts | 304° |
| 2026-05-04 18:36 | 49.09047 | 11.46477 | 11314 ft | 304 kts | 304° |
| 2026-05-04 18:36 | 49.10339 | 11.43950 | 11018 ft | 299 kts | 304° |
| 2026-05-04 18:36 | 49.11616 | 11.41451 | 10723 ft | 298 kts | 304° |
| 2026-05-04 18:37 | 49.12884 | 11.38966 | 10420 ft | 295 kts | 304° |
| 2026-05-04 18:37 | 49.14145 | 11.36493 | 10148 ft | 296 kts | 304° |
| 2026-05-04 18:37 | 49.15392 | 11.34045 | 9874 ft | 295 kts | 304° |
| 2026-05-04 18:37 | 49.16654 | 11.31566 | 9620 ft | 293 kts | 304° |
| 2026-05-04 18:38 | 49.17907 | 11.29103 | 9358 ft | 292 kts | 304° |
| 2026-05-04 18:38 | 49.19151 | 11.26655 | 9090 ft | 291 kts | 304° |
| 2026-05-04 18:38 | 49.20391 | 11.24215 | 8820 ft | 290 kts | 305° |
| 2026-05-04 18:38 | 49.21662 | 11.21825 | 8570 ft | 290 kts | 312° |
| 2026-05-04 18:39 | 49.23172 | 11.19763 | 8314 ft | 291 kts | 317° |
| 2026-05-04 18:39 | 49.24698 | 11.17741 | 8058 ft | 290 kts | 317° |
| 2026-05-04 18:39 | 49.26216 | 11.15716 | 7812 ft | 289 kts | 317° |
| 2026-05-04 18:39 | 49.27907 | 11.14150 | 7555 ft | 289 kts | 343° |
| 2026-05-04 18:40 | 49.29899 | 11.14066 | 7222 ft | 288 kts | 15° |
| 2026-05-04 18:40 | 49.31664 | 11.15450 | 6902 ft | 285 kts | 40° |
| 2026-05-04 18:40 | 49.32944 | 11.17724 | 6599 ft | 280 kts | 63° |
| 2026-05-04 18:40 | 49.33518 | 11.20515 | 6345 ft | 273 kts | 87° |
| 2026-05-04 18:41 | 49.33551 | 11.23403 | 6033 ft | 270 kts | 90° |
| 2026-05-04 18:41 | 49.33599 | 11.26287 | 5747 ft | 271 kts | 89° |
| 2026-05-04 18:41 | 49.33660 | 11.29141 | 5531 ft | 270 kts | 89° |
| 2026-05-04 18:41 | 49.33725 | 11.32014 | 5491 ft | 269 kts | 89° |
| 2026-05-04 18:42 | 49.33797 | 11.34887 | 5494 ft | 270 kts | 88° |
| 2026-05-04 18:42 | 49.33871 | 11.37773 | 5494 ft | 270 kts | 88° |
| 2026-05-04 18:42 | 49.33943 | 11.40634 | 5256 ft | 268 kts | 88° |
| 2026-05-04 18:42 | 49.34043 | 11.43490 | 4945 ft | 267 kts | 82° |
| 2026-05-04 18:43 | 49.34713 | 11.46114 | 4642 ft | 265 kts | 54° |
| 2026-05-04 18:43 | 49.36089 | 11.47949 | 4316 ft | 265 kts | 27° |
| 2026-05-04 18:43 | 49.37845 | 11.48583 | 4039 ft | 263 kts | 359° |
| 2026-05-04 18:43 | 49.39607 | 11.47830 | 3978 ft | 265 kts | 330° |
| 2026-05-04 18:44 | 49.40975 | 11.46070 | 4005 ft | 255 kts | 315° |
| 2026-05-04 18:44 | 49.41792 | 11.44753 | 4002 ft | 246 kts | 314° |
| 2026-05-04 18:44 | 49.43288 | 11.42305 | 3992 ft | 227 kts | 314° |
| 2026-05-04 18:44 | 49.44315 | 11.40620 | 4042 ft | 205 kts | 314° |
| 2026-05-04 18:45 | 49.45261 | 11.39060 | 4020 ft | 196 kts | 314° |
| 2026-05-04 18:45 | 49.46191 | 11.37534 | 4016 ft | 195 kts | 314° |
| 2026-05-04 18:45 | 49.47100 | 11.36023 | 4014 ft | 194 kts | 310° |
| 2026-05-04 18:45 | 49.47616 | 11.34154 | 3956 ft | 186 kts | 275° |
| 2026-05-04 18:46 | 49.47607 | 11.32221 | 3945 ft | 179 kts | 272° |
| 2026-05-04 18:46 | 49.47689 | 11.30332 | 3717 ft | 175 kts | 277° |
| 2026-05-04 18:46 | 49.47840 | 11.28483 | 3494 ft | 173 kts | 279° |
| 2026-05-04 18:46 | 49.48015 | 11.26656 | 3273 ft | 172 kts | 280° |
| 2026-05-04 18:47 | 49.48193 | 11.24842 | 3054 ft | 171 kts | 280° |
| 2026-05-04 18:47 | 49.48372 | 11.23034 | 2831 ft | 171 kts | 281° |
| 2026-05-04 18:47 | 49.48548 | 11.21233 | 2605 ft | 169 kts | 281° |
| 2026-05-04 18:47 | 49.48718 | 11.19507 | 2384 ft | 159 kts | 282° |
| 2026-05-04 18:48 | 49.48877 | 11.17887 | 2163 ft | 149 kts | 282° |
| 2026-05-04 18:48 | 49.49031 | 11.16324 | 2004 ft | 148 kts | 281° |
| 2026-05-04 18:48 | 49.49183 | 11.14782 | 1773 ft | 144 kts | 281° |
| 2026-05-04 18:48 | 49.49328 | 11.13267 | 1588 ft | 144 kts | 281° |
| 2026-05-04 18:49 | 49.49475 | 11.11740 | 1367 ft | 144 kts | 279° |
| 2026-05-04 18:49 | 49.49625 | 11.10226 | 1184 ft | 142 kts | 281° |
| 2026-05-04 18:49 | 49.49772 | 11.08749 | 1044 ft | 130 kts | 280° |
| 2026-05-04 18:49 | 49.49889 | 11.07607 | 1026 ft | 83 kts | 279° |
| 2026-05-04 18:50 | 49.49937 | 11.07093 | 1025 ft | 23 kts | 271° |
| 2026-05-04 18:50 | 49.49876 | 11.07018 | 1022 ft | 10 kts | 169° |
| 2026-05-04 18:50 | 49.49861 | 11.07025 | 1021 ft | 1 kts | 160° |
| 2026-05-04 18:50 | 49.49838 | 11.07038 | 1023 ft | 3 kts | 159° |
| 2026-05-04 18:51 | 49.49817 | 11.07051 | 1023 ft | 5 kts | 159° |
| 2026-05-04 18:51 | 49.49780 | 11.07074 | 1023 ft | 7 kts | 155° |
| 2026-05-04 18:51 | 49.49747 | 11.07128 | 1021 ft | 6 kts | 115° |
| 2026-05-04 18:51 | 49.49734 | 11.07192 | 1022 ft | 7 kts | 110° |
| 2026-05-04 18:52 | 49.49696 | 11.07229 | 1024 ft | 7 kts | 174° |
| 2026-05-04 18:52 | 49.49665 | 11.07218 | 1023 ft | 0 kts | 230° |
| 2026-05-04 18:52 | 49.49665 | 11.07217 | 1023 ft | 0 kts | 243° |
| 2026-05-04 18:52 | 49.49665 | 11.07213 | 1024 ft | 2 kts | 270° |
| 2026-05-04 18:53 | 49.49667 | 11.07164 | 1026 ft | 1 kts | 277° |
| 2026-05-04 18:53 | 49.49663 | 11.07136 | 1026 ft | 2 kts | 229° |
| 2026-05-04 18:53 | 49.49654 | 11.07131 | 1024 ft | 1 kts | 191° |
| 2026-05-04 18:53 | 49.49639 | 11.07133 | 1026 ft | 3 kts | 176° |
| 2026-05-04 18:54 | 49.49635 | 11.07133 | 1026 ft | 0 kts | 180° |